Perkiomenville, Pennsylvania
Current Conditions -  °F | °C
As of 1:54 AM on Saturday 25 Oct 2014 (Local Time) from KPTW Reporting Station
Clear Clear  
Wind Chill: 48°   Ceiling: Unl
Heat Index: 48°   Visibility: 10mi
Dew Point: 35°   Wind: 3mph
Humidity: 61%   Direction: 310°NW
Pressure: 29.92"   Gusts: NA
Location:  40.32°N, 75.48°W
Report Text: KPTW 250554Z AUTO 31003KT 10SM CLR 09/02 A2992 RMK AO2 SLP128 T00890017 10156 20089 53005
Loading
Personal Weather Stations






























Interactive Weather Map
Tropical Storm Tracking
New forecast layout! Learn more

10-Day Weather Forecast

Advertisements
Track Severe Weather on mobile